createdAt,value
2022-11-05T00:04:08.913Z,5.18
2022-11-05T00:09:12.427Z,5.43
2022-11-05T00:14:16.016Z,4.82
2022-11-05T00:19:20.369Z,5.35
2022-11-05T00:24:24.807Z,5.63
2022-11-05T00:29:28.150Z,5.50
2022-11-05T00:39:34.623Z,5.15
2022-11-05T00:44:51.572Z,5.25
2022-11-05T00:49:55.106Z,5.15
2022-11-05T00:54:58.768Z,5.60
2022-11-05T01:00:01.953Z,5.20
2022-11-05T01:05:05.981Z,4.95
2022-11-05T01:10:09.394Z,5.70
2022-11-05T01:15:13.360Z,4.82
2022-11-05T01:20:17.285Z,5.30
2022-11-05T01:25:21.122Z,5.35
2022-11-05T01:30:24.832Z,4.80
2022-11-05T01:35:28.150Z,5.45
2022-11-05T01:40:31.558Z,4.88
2022-11-05T01:45:35.408Z,5.03
2022-11-05T01:50:47.713Z,4.88
2022-11-05T01:56:07.231Z,4.47
2022-11-05T02:01:12.626Z,5.03
2022-11-05T02:06:17.687Z,5.15
2022-11-05T02:11:21.354Z,4.70
2022-11-05T02:16:43.993Z,5.18
2022-11-05T02:27:21.404Z,5.40
2022-11-05T02:32:46.830Z,5.30
2022-11-05T02:37:55.532Z,5.60
2022-11-05T02:43:09.146Z,4.97
2022-11-05T02:48:36.548Z,5.40
2022-11-05T02:54:03.368Z,5.35
2022-11-05T02:59:06.939Z,5.15
2022-11-05T03:04:13.528Z,5.22
2022-11-05T03:09:52.436Z,6.40
2022-11-05T03:14:58.568Z,6.35
2022-11-05T03:20:13.983Z,6.40
2022-11-05T03:25:21.881Z,6.45
2022-11-05T03:30:25.950Z,6.35
2022-11-05T03:35:35.593Z,6.43
2022-11-05T03:40:40.889Z,6.70
2022-11-05T03:45:51.620Z,5.95
2022-11-05T03:51:08.894Z,7.05
2022-11-05T03:56:27.093Z,7.07
2022-11-05T04:01:31.019Z,6.93
2022-11-05T04:06:35.414Z,6.75
2022-11-05T04:11:38.627Z,6.22
2022-11-05T04:16:42.132Z,6.78
2022-11-05T04:21:45.402Z,4.93
2022-11-05T04:26:48.916Z,5.32
2022-11-05T04:31:52.668Z,4.57
2022-11-05T04:41:59.527Z,4.15
2022-11-05T04:47:02.878Z,3.72
2022-11-05T04:52:06.010Z,3.95
2022-11-05T05:02:12.455Z,4.90
2022-11-05T05:07:16.122Z,4.63
2022-11-05T05:17:22.436Z,4.60
2022-11-05T05:22:27.440Z,3.95
2022-11-05T05:27:31.637Z,4.03
2022-11-05T05:32:35.041Z,3.85
2022-11-05T05:42:43.358Z,3.55
2022-11-05T05:47:47.539Z,3.65
2022-11-05T05:52:50.989Z,3.40
2022-11-05T05:57:54.716Z,3.17
2022-11-05T06:02:58.002Z,4.28
2022-11-05T06:08:01.749Z,4.55
2022-11-05T06:13:05.104Z,3.53
2022-11-05T06:18:08.429Z,4.05
2022-11-05T06:23:12.408Z,3.50
2022-11-05T06:28:16.798Z,3.75
2022-11-05T06:33:20.542Z,3.80
2022-11-05T06:38:24.276Z,3.67
2022-11-05T06:43:30.834Z,4.47
2022-11-05T06:48:38.912Z,4.63
2022-11-05T06:53:42.260Z,4.35
2022-11-05T06:58:45.891Z,3.90
2022-11-05T07:03:49.616Z,4.65
2022-11-05T07:08:53.124Z,4.38
2022-11-05T07:13:57.198Z,4.13
2022-11-05T07:19:00.881Z,4.15
2022-11-05T07:24:04.573Z,4.38
2022-11-05T07:29:08.239Z,4.70
2022-11-05T07:34:12.112Z,4.70
2022-11-05T07:39:15.491Z,4.38
2022-11-05T07:44:19.298Z,4.68
2022-11-05T07:49:23.238Z,4.68
2022-11-05T07:54:26.728Z,3.88
2022-11-05T07:59:30.231Z,4.25
2022-11-05T08:04:33.538Z,3.58
2022-11-05T08:09:36.952Z,3.83
2022-11-05T08:14:40.345Z,4.28
2022-11-05T08:19:44.283Z,6.20
2022-11-05T08:24:47.740Z,5.68
2022-11-05T08:29:51.294Z,6.07
2022-11-05T08:34:55.495Z,6.15
2022-11-05T08:39:58.913Z,6.63
2022-11-05T08:45:02.298Z,7.65
2022-11-05T08:50:06.698Z,7.55
2022-11-05T08:55:10.123Z,6.45
2022-11-05T09:00:15.093Z,5.55
2022-11-05T09:05:18.577Z,6.85
2022-11-05T09:10:21.922Z,7.20
2022-11-05T09:15:25.610Z,6.53
2022-11-05T09:20:29.434Z,6.45
2022-11-05T09:25:35.933Z,6.95
2022-11-05T09:30:43.377Z,8.68
2022-11-05T09:35:47.127Z,6.53
2022-11-05T09:40:56.098Z,7.43
2022-11-05T09:46:04.197Z,7.50
2022-11-05T09:51:11.590Z,7.15
2022-11-05T09:56:30.799Z,6.70
2022-11-05T10:01:37.371Z,6.93
2022-11-05T10:07:03.823Z,8.57
2022-11-05T10:12:12.617Z,6.72
2022-11-05T10:17:26.586Z,6.53
2022-11-05T10:22:30.356Z,7.28
2022-11-05T10:27:37.376Z,6.70
2022-11-05T10:32:44.285Z,7.93
2022-11-05T10:37:52.065Z,7.30
2022-11-05T10:43:06.771Z,7.25
2022-11-05T10:48:31.779Z,6.35
2022-11-05T10:53:38.006Z,6.70
2022-11-05T10:58:55.062Z,6.85
2022-11-05T11:04:12.343Z,5.70
2022-11-05T11:09:38.760Z,7.18
2022-11-05T11:14:42.127Z,7.32
2022-11-05T11:19:45.615Z,7.03
2022-11-05T11:24:52.929Z,6.85
2022-11-05T11:30:01.612Z,8.15
2022-11-05T11:35:18.644Z,8.02
2022-11-05T11:40:31.621Z,8.32
2022-11-05T11:45:53.531Z,8.48
2022-11-05T11:50:58.600Z,8.63
2022-11-05T11:56:04.073Z,9.15
2022-11-05T12:01:26.234Z,8.68
2022-11-05T12:06:36.466Z,8.60
2022-11-05T12:11:50.984Z,8.55
2022-11-05T12:17:11.396Z,9.30
2022-11-05T12:22:39.991Z,9.25
2022-11-05T12:28:01.517Z,8.18
2022-11-05T12:33:16.849Z,9.55
2022-11-05T12:38:30.625Z,8.57
2022-11-05T12:43:58.983Z,9.10
2022-11-05T12:49:31.519Z,8.82
2022-11-05T12:55:02.459Z,8.52
2022-11-05T13:00:17.168Z,7.45
2022-11-05T13:05:35.579Z,8.07
2022-11-05T13:10:46.889Z,7.30
2022-11-05T13:15:54.899Z,7.32
2022-11-05T13:21:01.529Z,8.05
2022-11-05T13:26:19.566Z,6.70
2022-11-05T13:31:32.292Z,7.18
2022-11-05T13:36:57.443Z,7.40
2022-11-05T13:42:12.779Z,7.47
2022-11-05T13:47:45.831Z,6.53
2022-11-05T13:53:43.115Z,6.63
2022-11-05T13:59:20.581Z,7.03
2022-11-05T14:05:01.320Z,6.75
2022-11-05T14:10:26.119Z,6.88
2022-11-05T14:15:31.246Z,6.72
2022-11-05T14:20:43.691Z,7.28
2022-11-05T14:26:11.477Z,7.63
2022-11-05T14:31:41.108Z,7.28
2022-11-05T14:37:14.734Z,7.15
2022-11-05T14:42:29.664Z,6.80
2022-11-05T14:47:38.168Z,6.35
2022-11-05T14:52:52.185Z,5.72
2022-11-05T14:57:55.394Z,6.55
2022-11-05T15:03:01.586Z,7.55
2022-11-05T15:08:23.472Z,5.53
2022-11-05T15:13:38.904Z,5.80
2022-11-05T15:18:47.522Z,6.47
2022-11-05T15:23:55.495Z,5.10
2022-11-05T15:29:01.128Z,6.25
2022-11-05T15:34:33.628Z,6.05
2022-11-05T15:39:41.143Z,5.47
2022-11-05T15:44:48.514Z,5.15
2022-11-05T15:49:57.362Z,5.30
2022-11-05T15:55:13.815Z,4.93
2022-11-05T16:00:28.142Z,4.97
2022-11-05T16:05:35.525Z,7.00
2022-11-05T16:10:39.368Z,5.47
2022-11-05T16:15:54.473Z,5.63
2022-11-05T16:21:06.278Z,5.93
2022-11-05T16:27:01.093Z,5.75
2022-11-05T16:32:00.209Z,6.03
2022-11-05T16:37:06.904Z,6.20
2022-11-05T16:42:22.348Z,6.10
2022-11-05T16:47:25.915Z,7.00
2022-11-05T16:52:29.403Z,6.72
2022-11-05T16:57:33.976Z,5.80
2022-11-05T17:02:37.326Z,5.57
2022-11-05T17:07:41.669Z,6.35
2022-11-05T17:12:45.754Z,6.43
2022-11-05T17:17:49.895Z,6.50
2022-11-05T17:22:59.086Z,6.15
2022-11-05T17:28:02.850Z,6.78
2022-11-05T17:33:06.276Z,5.63
2022-11-05T17:38:12.309Z,6.38
2022-11-05T17:43:16.358Z,5.93
2022-11-05T17:48:21.105Z,5.75
2022-11-05T17:53:24.463Z,5.97
2022-11-05T17:58:27.880Z,6.22
2022-11-05T18:03:35.232Z,6.22
2022-11-05T18:08:38.624Z,5.65
2022-11-05T18:13:41.860Z,5.40
2022-11-05T18:18:45.317Z,5.78
2022-11-05T18:23:48.797Z,5.70
2022-11-05T18:28:52.261Z,6.72
2022-11-05T18:33:58.655Z,5.95
2022-11-05T18:39:04.537Z,6.80
2022-11-05T18:44:08.477Z,6.07
2022-11-05T18:49:11.705Z,6.57
2022-11-05T18:54:15.513Z,6.03
2022-11-05T18:59:36.866Z,6.95
2022-11-05T19:10:04.977Z,6.05
2022-11-05T19:15:09.270Z,5.97
2022-11-05T19:20:13.237Z,6.22
2022-11-05T19:25:17.010Z,6.20
2022-11-05T19:30:20.483Z,5.95
2022-11-05T19:35:24.076Z,6.78
2022-11-05T19:40:27.487Z,7.53
2022-11-05T19:45:44.234Z,6.53
2022-11-05T19:50:48.594Z,6.97
2022-11-05T19:55:51.785Z,7.05
2022-11-05T20:00:56.076Z,8.85
2022-11-05T20:06:04.057Z,9.35
2022-11-05T20:11:07.429Z,7.38
2022-11-05T20:16:30.398Z,7.72
2022-11-05T20:21:34.424Z,7.80
2022-11-05T20:26:37.936Z,8.27
2022-11-05T20:31:42.261Z,8.52
2022-11-05T20:36:45.780Z,9.35
2022-11-05T20:41:49.260Z,8.20
2022-11-05T20:46:52.741Z,8.32
2022-11-05T20:51:57.217Z,8.18
2022-11-05T20:57:01.045Z,8.20
2022-11-05T21:02:04.905Z,8.63
2022-11-05T21:07:08.301Z,7.60
2022-11-05T21:12:11.458Z,6.55
2022-11-05T21:17:14.714Z,7.18
2022-11-05T21:22:18.577Z,8.02
2022-11-05T21:27:21.968Z,7.43
2022-11-05T21:32:26.355Z,6.88
2022-11-05T21:37:29.729Z,7.57
2022-11-05T21:42:33.169Z,7.68
2022-11-05T21:47:36.562Z,6.88
2022-11-05T21:52:40.098Z,8.10
2022-11-05T21:57:44.355Z,8.15
2022-11-05T22:02:47.953Z,8.50
2022-11-05T22:07:51.407Z,10.40
2022-11-05T22:12:54.995Z,8.98
2022-11-05T22:17:58.946Z,10.25
2022-11-05T22:23:05.368Z,9.30
2022-11-05T22:28:12.561Z,9.98
2022-11-05T22:33:15.784Z,9.35
2022-11-05T22:38:19.043Z,10.50
2022-11-05T22:43:22.446Z,9.68
2022-11-05T22:48:25.953Z,9.35
2022-11-05T22:53:29.990Z,11.15
2022-11-05T22:58:33.762Z,9.77
2022-11-05T23:03:37.611Z,10.65
2022-11-05T23:08:41.032Z,9.52
2022-11-05T23:13:44.121Z,9.75
2022-11-05T23:18:47.205Z,10.50
2022-11-05T23:23:50.462Z,10.68
2022-11-05T23:28:53.925Z,10.50
2022-11-05T23:33:57.373Z,9.93
2022-11-05T23:39:00.835Z,10.35
2022-11-05T23:44:04.693Z,10.00
2022-11-05T23:49:08.327Z,10.27
2022-11-05T23:54:11.814Z,10.82
2022-11-05T23:59:15.430Z,10.95
